Time;durP1;ratioP1;P1;durP2;ratioP2;P2;SDS_P1;SDS_P2;PMS_P1;PMS_P2;Temp;Humidity;BMP_temperature;BMP_pressure;BME280_temperature;BME280_humidity;BME280_pressure;Samples;Min_cycle;Max_cycle;Signal;HPM_P1;HPM_P2
2022/08/06 00:02:20;;;;;;;0.10;0.10;;;16.80;76.20;;;;;;6135933;23;20029;-87
2022/08/06 00:04:54;;;;;;;0.17;0.17;;;16.70;76.40;;;;;;6130008;23;20409;-87
2022/08/06 00:07:23;;;;;;;0.47;0.30;;;16.70;76.50;;;;;;6136371;23;20021;-87
2022/08/06 00:09:52;;;;;;;0.75;0.25;;;16.70;76.80;;;;;;6134454;23;20049;-87
2022/08/06 00:12:28;;;;;;;0.28;0.20;;;16.60;76.80;;;;;;6133796;23;20287;-87
2022/08/06 00:14:57;;;;;;;0.30;0.20;;;16.60;77.10;;;;;;6131856;23;20504;-88
2022/08/06 00:17:24;;;;;;;0.65;0.30;;;16.60;77.50;;;;;;6133012;23;20024;-86
2022/08/06 00:19:59;;;;;;;0.47;0.47;;;16.60;77.50;;;;;;6133514;23;20036;-85
2022/08/06 00:22:27;;;;;;;0.50;0.20;;;16.60;77.70;;;;;;6129857;23;20294;-85
2022/08/06 00:24:55;;;;;;;0.52;0.30;;;16.60;77.80;;;;;;6131918;23;20017;-85
2022/08/06 00:27:24;;;;;;;0.95;0.30;;;16.60;77.80;;;;;;6130818;23;20419;-90
2022/08/06 00:29:56;;;;;;;0.90;0.15;;;16.60;78.20;;;;;;6132452;23;20352;-89
2022/08/06 00:32:31;;;;;;;0.30;0.28;;;16.50;78.50;;;;;;6140835;23;20021;-88
2022/08/06 00:34:59;;;;;;;0.50;0.30;;;16.40;78.90;;;;;;6137052;23;20017;-92
2022/08/06 00:37:28;;;;;;;1.17;0.40;;;16.40;79.10;;;;;;6136673;23;20021;-93
2022/08/06 00:40:15;;;;;;;0.63;0.50;;;16.30;79.60;;;;;;6167812;23;20025;-91
2022/08/06 00:42:50;;;;;;;0.20;0.20;;;16.30;80.00;;;;;;6146351;23;20028;-93
2022/08/06 00:45:20;;;;;;;0.57;0.30;;;16.20;80.10;;;;;;6135537;23;20032;-88
2022/08/06 00:47:51;;;;;;;0.55;0.40;;;16.20;80.80;;;;;;6141831;23;20017;-90
2022/08/06 00:50:32;;;;;;;0.70;0.32;;;16.20;80.50;;;;;;6141307;23;20076;-86
2022/08/06 00:53:01;;;;;;;0.60;0.40;;;16.20;80.60;;;;;;6132030;23;20013;-90
2022/08/06 00:55:28;;;;;;;0.50;0.30;;;16.20;80.90;;;;;;6131892;23;20028;-91
2022/08/06 00:58:03;;;;;;;0.70;0.50;;;16.10;81.00;;;;;;6132946;23;20056;-88
2022/08/06 01:00:31;;;;;;;0.82;0.60;;;16.00;81.30;;;;;;6131151;23;20017;-86
2022/08/06 01:03:04;;;;;;;1.17;0.77;;;16.00;81.70;;;;;;6129404;23;20476;-88
2022/08/06 01:05:32;;;;;;;1.23;0.80;;;15.90;81.90;;;;;;6121432;23;20021;-88
2022/08/06 01:08:19;;;;;;;1.63;0.82;;;15.90;82.10;;;;;;6147685;23;20049;-89
2022/08/06 01:10:45;;;;;;;1.02;0.73;;;15.90;82.20;;;;;;6127853;23;20080;-88
2022/08/06 01:13:17;;;;;;;1.15;0.75;;;15.80;82.20;;;;;;6128581;23;20080;-86
2022/08/06 01:16:10;;;;;;;2.13;1.10;;;15.80;83.00;;;;;;6129361;23;20029;-87
2022/08/06 01:18:46;;;;;;;1.58;0.80;;;15.80;82.30;;;;;;6150135;23;20155;-86
2022/08/06 01:21:41;;;;;;;1.38;0.90;;;15.70;82.50;;;;;;6129857;23;20045;-86
2022/08/06 01:24:43;;;;;;;2.35;1.02;;;15.70;82.60;;;;;;6151395;23;20029;-87
2022/08/06 01:27:47;;;;;;;1.45;1.15;;;15.60;82.80;;;;;;6153368;23;20064;-89
2022/08/06 01:46:35;;;;;;;1.20;0.73;;;15.40;84.00;;;;;;6215011;23;20028;-91
2022/08/06 01:49:07;;;;;;;1.38;0.98;;;15.40;83.90;;;;;;6145603;23;20068;-88
2022/08/06 01:51:57;;;;;;;0.65;0.60;;;15.40;84.80;;;;;;6153268;23;20024;-90
2022/08/06 01:54:45;;;;;;;1.38;0.80;;;15.40;84.30;;;;;;6153019;23;20478;-87
2022/08/06 01:57:19;;;;;;;1.20;0.85;;;15.30;84.60;;;;;;6171477;23;20127;-88
2022/08/06 02:00:07;;;;;;;1.58;1.00;;;15.30;84.70;;;;;;6155129;23;20020;-90
2022/08/06 02:02:34;;;;;;;0.90;0.70;;;15.30;84.90;;;;;;6141418;23;20098;-87
2022/08/06 02:05:08;;;;;;;1.08;0.77;;;15.20;84.90;;;;;;6145522;23;20044;-89
2022/08/06 02:07:38;;;;;;;0.60;0.50;;;15.20;85.10;;;;;;6141516;23;20021;-87
2022/08/06 02:10:25;;;;;;;1.23;0.70;;;15.20;85.30;;;;;;6147347;23;20020;-87
2022/08/06 02:12:52;;;;;;;0.95;0.50;;;15.20;85.50;;;;;;6160605;23;20067;-91
2022/08/06 02:15:26;;;;;;;0.70;0.63;;;15.20;85.60;;;;;;6138280;23;20020;-92
2022/08/06 02:18:13;;;;;;;0.88;0.60;;;15.10;85.70;;;;;;6149296;23;20028;-94
2022/08/06 02:20:45;;;;;;;1.77;0.80;;;15.00;85.90;;;;;;6140082;23;20013;-88
2022/08/06 02:23:22;;;;;;;1.08;0.60;;;15.00;86.20;;;;;;6141083;23;20068;-90
2022/08/06 02:25:51;;;;;;;0.68;0.40;;;15.00;86.30;;;;;;6135134;23;20021;-92
2022/08/06 02:28:20;;;;;;;0.50;0.50;;;15.00;86.40;;;;;;6135861;23;20078;-89
2022/08/06 02:30:52;;;;;;;0.90;0.65;;;15.00;86.60;;;;;;6138796;23;20046;-88
2022/08/06 02:33:19;;;;;;;1.13;0.70;;;15.00;86.80;;;;;;6139656;23;20024;-90
2022/08/06 02:36:13;;;;;;;0.52;0.40;;;14.90;86.80;;;;;;6155003;23;20074;-90
2022/08/06 02:38:58;;;;;;;0.73;0.60;;;14.90;86.80;;;;;;6166099;23;20020;-91
2022/08/06 02:41:45;;;;;;;0.90;0.70;;;14.80;87.30;;;;;;6168309;23;20028;-88
2022/08/06 02:44:30;;;;;;;1.10;0.80;;;14.80;87.40;;;;;;6183900;23;20050;-89
2022/08/06 02:47:01;;;;;;;0.90;0.70;;;14.80;87.50;;;;;;6192236;23;20021;-92
2022/08/06 02:49:29;;;;;;;0.60;0.50;;;14.80;87.60;;;;;;6154841;23;20024;-92
2022/08/06 02:52:03;;;;;;;0.60;0.52;;;14.80;87.50;;;;;;6132991;23;20036;-96
2022/08/06 02:54:55;;;;;;;1.02;0.60;;;14.80;87.90;;;;;;6139750;23;20076;-90
2022/08/06 02:57:32;;;;;;;0.63;0.60;;;14.80;87.90;;;;;;6158422;23;20024;-93
2022/08/06 03:00:16;;;;;;;0.47;0.40;;;14.70;87.90;;;;;;6157406;23;20013;-86
2022/08/06 03:02:44;;;;;;;0.50;0.40;;;14.60;88.20;;;;;;6128208;23;20025;-89
2022/08/06 03:05:14;;;;;;;1.15;0.70;;;14.60;88.60;;;;;;6129262;23;20087;-88
2022/08/06 03:07:41;;;;;;;0.80;0.70;;;14.50;88.80;;;;;;6133964;23;20033;-88
2022/08/06 03:10:12;;;;;;;0.60;0.40;;;14.50;89.10;;;;;;6134792;23;20043;-87
2022/08/06 03:12:41;;;;;;;1.48;0.60;;;14.40;89.20;;;;;;6160440;23;20023;-88
2022/08/06 03:15:09;;;;;;;0.73;0.52;;;14.40;89.80;;;;;;6133280;23;20027;-88
2022/08/06 03:17:59;;;;;;;0.95;0.75;;;14.30;89.70;;;;;;6140368;23;20076;-89
2022/08/06 03:20:29;;;;;;;2.20;0.82;;;14.30;90.10;;;;;;6136427;23;20151;-89
2022/08/06 03:23:00;;;;;;;0.70;0.50;;;14.20;90.30;;;;;;6132454;23;20051;-86
2022/08/06 03:25:28;;;;;;;0.70;0.60;;;14.20;90.30;;;;;;6130700;23;20028;-86
2022/08/06 03:27:57;;;;;;;0.90;0.60;;;14.10;90.50;;;;;;6155023;23;20458;-87
2022/08/06 03:30:28;;;;;;;0.65;0.50;;;14.00;90.50;;;;;;6131830;23;20423;-88
2022/08/06 03:33:23;;;;;;;0.90;0.60;;;14.00;90.60;;;;;;6130957;23;20305;-87
2022/08/06 03:36:10;;;;;;;1.13;0.60;;;14.00;90.60;;;;;;6162903;23;20139;-85
2022/08/06 03:38:43;;;;;;;0.63;0.57;;;14.10;90.90;;;;;;6154260;23;20021;-88
2022/08/06 03:41:10;;;;;;;1.45;0.90;;;14.10;90.90;;;;;;6128234;23;20029;-86
2022/08/06 03:43:43;;;;;;;;;;;14.10;90.70;;;;;;6130891;23;20345;-87
2022/08/06 03:46:37;;;;;;;1.00;0.60;;;14.00;90.80;;;;;;6155723;23;20328;-88
2022/08/06 03:49:10;;;;;;;0.80;0.70;;;13.90;91.00;;;;;;6128657;23;20096;-89
2022/08/06 03:51:38;;;;;;;0.60;0.47;;;13.90;91.10;;;;;;6152242;23;20091;-87
2022/08/06 03:54:26;;;;;;;0.75;0.60;;;13.90;91.30;;;;;;6133599;23;20025;-87
2022/08/06 03:57:05;;;;;;;0.93;0.70;;;13.80;91.30;;;;;;6130076;23;20021;-87
2022/08/06 03:59:44;;;;;;;0.55;0.47;;;13.80;91.30;;;;;;6153132;23;20077;-86
2022/08/06 04:02:26;;;;;;;0.68;0.55;;;13.70;91.50;;;;;;6136641;23;20019;-86
2022/08/06 04:05:13;;;;;;;1.05;0.70;;;13.70;91.60;;;;;;6159535;23;20021;-88
2022/08/06 04:07:40;;;;;;;1.05;0.77;;;13.60;91.80;;;;;;6157079;23;20028;-88
2022/08/06 04:10:24;;;;;;;1.30;1.05;;;13.60;91.90;;;;;;6138599;23;20429;-87
2022/08/06 04:13:00;;;;;;;1.17;0.60;;;13.50;91.90;;;;;;6133413;23;20107;-87
2022/08/06 04:15:47;;;;;;;0.98;0.80;;;13.40;92.20;;;;;;6136156;23;20393;-87
2022/08/06 04:18:19;;;;;;;0.98;0.60;;;13.40;92.30;;;;;;6127538;23;20025;-88
2022/08/06 04:20:55;;;;;;;1.35;0.98;;;13.40;92.40;;;;;;6130446;23;20021;-89
2022/08/06 04:23:43;;;;;;;1.15;0.70;;;13.40;92.70;;;;;;6149574;23;20060;-88
2022/08/06 04:26:13;;;;;;;1.40;0.90;;;13.30;92.50;;;;;;6131828;23;20217;-87
2022/08/06 04:28:42;;;;;;;0.77;0.60;;;13.30;92.60;;;;;;6132996;23;20024;-86
2022/08/06 04:31:19;;;;;;;0.90;0.65;;;13.30;92.70;;;;;;6132987;23;20455;-86
2022/08/06 04:34:06;;;;;;;1.23;0.70;;;13.30;92.70;;;;;;6136481;23;20040;-86
2022/08/06 04:36:37;;;;;;;1.27;0.80;;;13.10;93.10;;;;;;6130883;23;20091;-85
2022/08/06 04:39:06;;;;;;;1.08;0.80;;;13.10;93.30;;;;;;6132478;23;20017;-88
2022/08/06 04:41:41;;;;;;;1.15;0.82;;;13.10;93.30;;;;;;6134471;23;20021;-87
2022/08/06 04:44:09;;;;;;;1.27;0.88;;;13.10;93.50;;;;;;6130756;23;20060;-88
2022/08/06 04:46:39;;;;;;;0.93;0.68;;;13.10;93.40;;;;;;6161291;23;20112;-88
2022/08/06 04:49:07;;;;;;;1.05;0.75;;;13.10;93.60;;;;;;6144919;23;20068;-87
2022/08/06 04:51:40;;;;;;;1.20;0.90;;;13.10;93.60;;;;;;6174429;23;20025;-85
2022/08/06 04:54:27;;;;;;;0.73;0.68;;;13.10;93.50;;;;;;6146550;23;20047;-85
2022/08/06 04:56:56;;;;;;;1.13;0.88;;;13.00;93.70;;;;;;6135921;23;20024;-86
2022/08/06 04:59:24;;;;;;;1.23;0.82;;;13.10;94.00;;;;;;6135573;23;20035;-86
2022/08/06 05:02:11;;;;;;;1.77;1.05;;;13.10;93.90;;;;;;6148883;23;20025;-88
2022/08/06 05:04:39;;;;;;;1.52;1.10;;;13.10;94.00;;;;;;6142009;23;20538;-90
2022/08/06 05:07:11;;;;;;;1.17;0.82;;;13.10;94.10;;;;;;6141067;23;20017;-90
2022/08/06 05:09:40;;;;;;;1.15;0.88;;;13.10;94.00;;;;;;6167858;23;20032;-87
2022/08/06 05:12:44;;;;;;;1.33;1.00;;;13.00;94.20;;;;;;6172897;23;20124;-88
2022/08/06 05:15:20;;;;;;;1.52;0.95;;;13.00;94.40;;;;;;6142914;23;20068;-88
2022/08/06 05:18:08;;;;;;;1.58;1.08;;;12.90;94.70;;;;;;6196473;23;20013;-88
2022/08/06 05:20:41;;;;;;;1.90;1.13;;;13.00;95.00;;;;;;6166001;23;20017;-89
2022/08/06 05:23:13;;;;;;;1.60;1.15;;;13.00;95.20;;;;;;6141635;23;20025;-91
2022/08/06 05:25:46;;;;;;;1.38;0.70;;;13.00;95.10;;;;;;6145856;23;20017;-90
2022/08/06 05:28:19;;;;;;;1.23;0.80;;;13.00;95.20;;;;;;6137701;23;20017;-86
2022/08/06 05:30:53;;;;;;;0.93;0.80;;;13.10;95.50;;;;;;6136465;23;20099;-88
2022/08/06 05:33:27;;;;;;;0.98;0.80;;;13.10;95.40;;;;;;6142965;23;20013;-87
2022/08/06 05:35:56;;;;;;;1.42;0.88;;;13.10;95.40;;;;;;6174267;23;20005;-89
2022/08/06 05:38:29;;;;;;;1.15;0.75;;;13.20;95.60;;;;;;6146816;23;20031;-91
2022/08/06 05:40:58;;;;;;;1.30;0.90;;;13.20;95.70;;;;;;6150134;23;20069;-89
2022/08/06 05:43:27;;;;;;;1.30;0.90;;;13.20;95.90;;;;;;6146889;23;20024;-90
2022/08/06 05:46:19;;;;;;;1.50;1.10;;;13.30;96.00;;;;;;6158108;23;20097;-92
2022/08/06 05:48:55;;;;;;;2.45;1.60;;;13.30;96.20;;;;;;6148066;23;20017;-87
2022/08/06 05:51:44;;;;;;;2.75;1.77;;;13.30;96.10;;;;;;6140192;23;20482;-89
2022/08/06 05:54:35;;;;;;;1.95;1.63;;;13.40;96.20;;;;;;6142196;23;20020;-88
2022/08/06 05:57:13;;;;;;;2.27;1.57;;;13.50;96.10;;;;;;6144228;23;20017;-88
2022/08/06 05:59:48;;;;;;;1.65;1.45;;;13.50;96.20;;;;;;6168049;23;20032;-88
2022/08/06 06:02:26;;;;;;;1.90;1.60;;;13.60;96.00;;;;;;6147143;23;20081;-87
2022/08/06 06:04:57;;;;;;;2.30;1.50;;;13.60;96.10;;;;;;6148767;23;20017;-90
2022/08/06 06:07:46;;;;;;;2.00;1.42;;;13.70;96.00;;;;;;6154189;23;20029;-86
2022/08/06 06:10:36;;;;;;;1.67;1.20;;;13.80;96.10;;;;;;6155365;23;20036;-88
2022/08/06 06:13:09;;;;;;;1.55;1.20;;;13.80;96.00;;;;;;6171458;23;20076;-88
2022/08/06 06:16:21;;;;;;;1.90;1.30;;;13.80;95.90;;;;;;6153791;23;20045;-86
2022/08/06 06:19:27;;;;;;;1.40;1.10;;;13.90;96.00;;;;;;6147857;23;20024;-86
2022/08/06 06:22:23;;;;;;;1.50;1.23;;;13.90;96.10;;;;;;6154523;23;20025;-88
2022/08/06 06:25:07;;;;;;;1.73;1.13;;;14.00;96.10;;;;;;6146928;23;20020;-87
2022/08/06 06:28:01;;;;;;;1.50;0.90;;;14.00;96.00;;;;;;6145681;23;20048;-87
2022/08/06 06:30:55;;;;;;;1.67;1.08;;;14.10;96.10;;;;;;6151543;23;20443;-87
2022/08/06 06:34:17;;;;;;;1.70;1.60;;;14.10;96.00;;;;;;6122601;23;20052;-88
2022/08/06 06:36:57;;;;;;;2.08;1.50;;;14.20;96.00;;;;;;6166102;23;20025;-87
2022/08/06 06:39:39;;;;;;;1.65;1.17;;;14.20;95.90;;;;;;6123848;23;20099;-88
2022/08/06 06:42:17;;;;;;;1.90;1.48;;;14.20;96.00;;;;;;6146924;23;20044;-87
2022/08/06 06:45:14;;;;;;;2.33;1.92;;;14.30;95.90;;;;;;6155896;23;20045;-88
2022/08/06 06:48:01;;;;;;;2.28;1.92;;;14.30;96.10;;;;;;6204636;23;20063;-88
2022/08/06 06:50:42;;;;;;;2.65;1.90;;;14.40;96.20;;;;;;6199329;23;20229;-89
2022/08/06 06:53:09;;;;;;;4.38;3.05;;;14.40;96.30;;;;;;6149460;23;20016;-88
2022/08/06 06:55:45;;;;;;;2.80;2.30;;;14.40;96.00;;;;;;6148107;23;20044;-89
2022/08/06 06:58:32;;;;;;;2.80;2.25;;;14.50;96.10;;;;;;6164211;23;20087;-88
2022/08/06 07:01:00;;;;;;;3.10;2.60;;;14.60;96.00;;;;;;6152306;23;20028;-88
2022/08/06 07:03:47;;;;;;;4.07;3.20;;;14.60;96.00;;;;;;6159966;23;20028;-88
2022/08/06 07:06:14;;;;;;;4.18;3.42;;;14.70;96.10;;;;;;6148268;23;20035;-89
2022/08/06 07:09:02;;;;;;;3.80;3.13;;;14.70;96.00;;;;;;6162347;23;20056;-91
2022/08/06 07:11:40;;;;;;;3.67;2.45;;;14.80;95.90;;;;;;6157860;23;20032;-90
2022/08/06 07:14:27;;;;;;;3.45;2.72;;;14.80;95.80;;;;;;6161660;23;20115;-89
2022/08/06 07:16:59;;;;;;;2.95;2.47;;;14.90;95.80;;;;;;6148188;23;20118;-88
2022/08/06 07:19:26;;;;;;;3.15;2.75;;;14.90;95.70;;;;;;6146972;23;20020;-89
2022/08/06 07:21:56;;;;;;;2.72;2.10;;;15.00;95.70;;;;;;6151237;23;20043;-88
2022/08/06 07:24:30;;;;;;;2.55;1.90;;;15.00;95.60;;;;;;6146582;23;20028;-88
2022/08/06 07:27:07;;;;;;;3.85;2.00;;;15.00;95.70;;;;;;6147971;23;20079;-89
2022/08/06 07:29:40;;;;;;;2.38;1.75;;;15.10;95.60;;;;;;6171326;23;20043;-88
2022/08/06 07:32:28;;;;;;;2.63;2.03;;;15.10;95.50;;;;;;6155945;23;20043;-88
2022/08/06 07:35:03;;;;;;;4.00;2.10;;;15.20;95.40;;;;;;6173483;23;20103;-88
2022/08/06 07:37:46;;;;;;;2.95;2.30;;;15.20;95.40;;;;;;6156168;23;20047;-88
2022/08/06 07:40:31;;;;;;;2.38;1.33;;;15.30;95.30;;;;;;6157829;23;20020;-89
2022/08/06 07:43:34;;;;;;;2.05;1.48;;;15.30;95.20;;;;;;6175292;23;20026;-88
2022/08/06 07:46:07;;;;;;;2.05;1.58;;;15.30;95.10;;;;;;6203598;23;20025;-88
2022/08/06 07:48:55;;;;;;;1.77;1.30;;;15.40;95.30;;;;;;6175939;23;20017;-88
2022/08/06 07:51:27;;;;;;;1.65;1.30;;;15.50;95.00;;;;;;6155772;23;20021;-88
2022/08/06 07:54:04;;;;;;;1.50;1.13;;;15.50;94.90;;;;;;6154582;23;20029;-88
2022/08/06 07:56:36;;;;;;;1.92;1.40;;;15.60;94.70;;;;;;6154762;23;20023;-87
2022/08/06 07:59:04;;;;;;;3.72;1.58;;;15.60;94.70;;;;;;6152588;23;20020;-87
2022/08/06 08:01:37;;;;;;;3.10;2.45;;;15.70;94.40;;;;;;6154203;23;20016;-89
2022/08/06 08:07:19;;;;;;;2.23;1.70;;;15.80;94.10;;;;;;6191624;23;20020;-87
2022/08/06 08:10:03;;;;;;;2.50;1.85;;;15.80;93.90;;;;;;6184772;23;20250;-89
2022/08/06 08:12:31;;;;;;;1.85;1.50;;;15.80;94.40;;;;;;6151474;23;20040;-90
2022/08/06 08:15:03;;;;;;;2.03;1.60;;;15.90;94.10;;;;;;6155927;23;20019;-89
2022/08/06 08:17:33;;;;;;;1.73;1.30;;;16.00;93.80;;;;;;6153209;23;20020;-89
2022/08/06 08:20:03;;;;;;;1.50;1.40;;;16.00;93.60;;;;;;6150488;23;20080;-89
2022/08/06 08:22:42;;;;;;;1.52;1.17;;;16.10;93.90;;;;;;6154024;23;20024;-88
2022/08/06 08:25:17;;;;;;;3.53;3.03;;;16.10;93.50;;;;;;6156310;23;20068;-89
2022/08/06 08:28:08;;;;;;;4.68;3.72;;;16.20;92.70;;;;;;6156454;23;20020;-88
2022/08/06 08:30:40;;;;;;;3.30;2.95;;;16.30;92.50;;;;;;6148269;23;20051;-89
2022/08/06 08:33:08;;;;;;;4.45;3.40;;;16.40;92.40;;;;;;6150163;23;20364;-87
2022/08/06 08:35:42;;;;;;;3.35;2.47;;;16.50;92.40;;;;;;6207934;23;20021;-88
2022/08/06 08:38:31;;;;;;;3.35;2.17;;;16.50;92.70;;;;;;6170018;22;20009;-89
2022/08/06 08:41:27;;;;;;;2.28;2.00;;;16.60;92.10;;;;;;6157957;23;20091;-89
2022/08/06 08:44:15;;;;;;;3.28;2.42;;;16.60;92.30;;;;;;6193933;23;20103;-88
2022/08/06 08:46:52;;;;;;;2.08;1.52;;;16.70;91.20;;;;;;6168286;23;20400;-88
2022/08/06 08:49:45;;;;;;;2.08;1.77;;;16.80;91.60;;;;;;6143027;23;20103;-88
2022/08/06 08:52:15;;;;;;;2.90;2.20;;;16.90;91.50;;;;;;6141147;23;20095;-88
2022/08/06 08:54:46;;;;;;;2.60;2.00;;;16.90;91.30;;;;;;6141211;23;20051;-89
2022/08/06 08:57:16;;;;;;;2.70;2.17;;;16.90;91.20;;;;;;6141549;23;20037;-89
2022/08/06 09:00:05;;;;;;;2.05;1.70;;;17.00;91.10;;;;;;6152499;23;20246;-88
2022/08/06 09:02:38;;;;;;;1.85;1.40;;;17.10;90.30;;;;;;6142403;23;20092;-88
2022/08/06 09:05:17;;;;;;;2.35;1.50;;;17.10;90.70;;;;;;6146572;23;20128;-88
2022/08/06 09:07:44;;;;;;;2.28;1.33;;;17.20;90.30;;;;;;6138966;23;20021;-90
2022/08/06 09:10:27;;;;;;;2.38;1.50;;;17.20;90.10;;;;;;6144742;23;20031;-91
2022/08/06 09:12:59;;;;;;;1.27;0.95;;;17.30;90.10;;;;;;6140226;23;20038;-87
2022/08/06 09:15:27;;;;;;;1.38;1.13;;;17.40;88.80;;;;;;6137034;23;20020;-90
2022/08/06 09:17:58;;;;;;;3.45;2.08;;;17.40;89.10;;;;;;6138252;23;20079;-90
2022/08/06 09:20:55;;;;;;;2.67;2.00;;;17.40;88.80;;;;;;6148520;23;20099;-95
2022/08/06 09:23:31;;;;;;;2.30;1.67;;;17.50;88.90;;;;;;6151019;23;20032;-92
2022/08/06 09:26:15;;;;;;;1.42;1.23;;;17.60;88.10;;;;;;6158987;23;20029;-91
2022/08/06 09:29:04;;;;;;;1.73;1.42;;;17.60;86.30;;;;;;6161917;23;20031;-91
2022/08/06 09:31:49;;;;;;;1.25;0.98;;;17.70;86.50;;;;;;6147072;23;20024;-92
2022/08/06 09:34:21;;;;;;;1.52;0.95;;;17.80;86.10;;;;;;6136672;23;20019;-92
2022/08/06 09:37:05;;;;;;;1.65;1.20;;;17.90;86.50;;;;;;6146292;23;20020;-91
2022/08/06 09:39:40;;;;;;;1.35;1.13;;;18.00;85.90;;;;;;6137817;23;20072;-91
2022/08/06 09:42:37;;;;;;;1.52;0.98;;;18.10;84.60;;;;;;6153688;23;20069;-92
2022/08/06 09:45:11;;;;;;;1.70;1.30;;;18.20;83.40;;;;;;6137502;23;20096;-89
2022/08/06 09:47:46;;;;;;;1.80;1.40;;;18.30;82.10;;;;;;6139186;23;20065;-89
2022/08/06 09:50:46;;;;;;;1.17;1.08;;;18.40;80.20;;;;;;6144841;23;20053;-92
2022/08/06 09:53:13;;;;;;;1.70;1.30;;;18.50;81.20;;;;;;6136151;23;20158;-92
2022/08/06 09:55:47;;;;;;;1.27;0.98;;;18.60;79.10;;;;;;6139931;23;20031;-92
2022/08/06 09:58:29;;;;;;;0.88;0.70;;;18.60;78.90;;;;;;6133328;23;20016;-94
2022/08/06 10:01:10;;;;;;;1.08;0.98;;;18.70;77.90;;;;;;6138675;23;20387;-91
2022/08/06 10:03:49;;;;;;;1.50;1.30;;;18.70;79.80;;;;;;6142202;23;20104;-92
2022/08/06 10:06:32;;;;;;;2.78;1.40;;;18.90;78.80;;;;;;6149934;23;20013;-94
2022/08/06 10:09:10;;;;;;;2.65;1.77;;;19.00;75.90;;;;;;6137508;23;20024;-92
2022/08/06 10:11:57;;;;;;;2.60;1.60;;;19.10;74.60;;;;;;6147020;23;20112;-91
2022/08/06 10:14:31;;;;;;;1.40;1.10;;;19.10;75.90;;;;;;6138665;23;20099;-90
2022/08/06 10:17:09;;;;;;;1.15;0.75;;;19.20;76.20;;;;;;6168855;23;20327;-93
2022/08/06 10:20:10;;;;;;;1.65;1.20;;;19.30;77.00;;;;;;6183949;23;20024;-93
2022/08/06 10:23:00;;;;;;;1.50;1.25;;;19.40;76.50;;;;;;6167837;23;20497;-92
2022/08/06 10:25:31;;;;;;;1.35;1.00;;;19.40;76.30;;;;;;6152951;23;20020;-91
2022/08/06 10:28:12;;;;;;;1.67;1.20;;;19.60;75.20;;;;;;6166188;23;20024;-92
2022/08/06 10:30:43;;;;;;;1.25;0.98;;;19.60;74.40;;;;;;6151492;23;20088;-92
2022/08/06 10:33:11;;;;;;;1.85;1.40;;;19.60;74.30;;;;;;6169949;23;20208;-91
2022/08/06 10:35:52;;;;;;;1.92;1.30;;;19.80;73.90;;;;;;6140845;23;20016;-92
2022/08/06 10:38:21;;;;;;;2.72;2.08;;;19.90;75.80;;;;;;6134077;23;20028;-92
2022/08/06 10:41:03;;;;;;;3.42;2.25;;;20.00;74.10;;;;;;6146546;23;20013;-91
2022/08/06 10:43:33;;;;;;;2.33;2.00;;;20.10;72.30;;;;;;6161066;23;20025;-92
2022/08/06 10:46:08;;;;;;;4.03;2.65;;;20.10;73.80;;;;;;6128752;23;20116;-93
2022/08/06 10:48:38;;;;;;;2.75;2.10;;;20.20;74.60;;;;;;6134891;23;20021;-94
2022/08/06 10:51:25;;;;;;;3.45;2.05;;;20.20;74.10;;;;;;6138396;23;20492;-93
2022/08/06 10:54:12;;;;;;;3.08;1.98;;;20.30;73.70;;;;;;6135639;23;20029;-92
2022/08/06 10:56:46;;;;;;;;;;;20.30;73.00;;;;;;6130729;23;20021;-94
2022/08/06 10:59:17;;;;;;;1.55;1.33;;;20.30;72.30;;;;;;6160242;23;19920;-94
2022/08/06 11:02:31;;;;;;;1.50;1.10;;;20.40;72.20;;;;;;6161696;23;20072;-91
2022/08/06 11:05:19;;;;;;;2.95;1.58;;;20.60;71.40;;;;;;6168632;23;20048;-92
2022/08/06 11:07:59;;;;;;;2.30;1.50;;;20.60;71.00;;;;;;6160196;23;20558;-92
2022/08/06 11:11:23;;;;;;;1.80;1.45;;;20.70;70.70;;;;;;6157692;23;20024;-92
2022/08/06 11:14:04;;;;;;;1.75;1.30;;;20.70;68.50;;;;;;6176424;23;20087;-92
2022/08/06 11:16:54;;;;;;;1.77;1.40;;;20.80;71.30;;;;;;6132824;23;20020;-91
2022/08/06 11:19:39;;;;;;;1.55;1.20;;;20.90;71.80;;;;;;6129474;23;20570;-92
2022/08/06 11:22:38;;;;;;;1.77;1.30;;;21.00;71.30;;;;;;6133285;23;20041;-92
2022/08/06 11:25:39;;;;;;;1.08;0.98;;;21.10;70.10;;;;;;6166676;23;20021;-92
2022/08/06 11:28:07;;;;;;;1.02;0.93;;;21.30;69.40;;;;;;6133151;23;20024;-94
2022/08/06 11:30:42;;;;;;;1.02;0.90;;;21.50;69.70;;;;;;6124894;23;20023;-93
2022/08/06 11:33:34;;;;;;;1.05;0.70;;;21.80;67.80;;;;;;6126360;23;20017;-89
2022/08/06 11:36:03;;;;;;;1.40;1.20;;;21.90;65.90;;;;;;6161410;23;20028;-89
2022/08/06 11:38:42;;;;;;;1.67;1.35;;;21.90;66.20;;;;;;6148600;23;20043;-89
2022/08/06 11:41:17;;;;;;;1.98;1.42;;;22.00;66.40;;;;;;6173528;23;20052;-90
2022/08/06 11:44:05;;;;;;;2.20;1.55;;;22.10;66.10;;;;;;6152539;23;20032;-88
2022/08/06 11:46:38;;;;;;;2.95;2.15;;;22.30;65.60;;;;;;6126619;23;20052;-90
2022/08/06 11:49:24;;;;;;;2.67;1.90;;;22.10;65.50;;;;;;6126752;23;20017;-88
2022/08/06 11:51:56;;;;;;;3.47;2.15;;;22.30;65.00;;;;;;6124658;23;20021;-89
2022/08/06 11:54:53;;;;;;;1.65;1.50;;;22.60;64.40;;;;;;6127757;23;20017;-89
2022/08/06 11:57:20;;;;;;;1.77;1.45;;;22.90;63.70;;;;;;6113538;23;20025;-88
2022/08/06 12:00:10;;;;;;;2.00;1.60;;;23.40;63.10;;;;;;6172902;23;20029;-88
2022/08/06 12:02:40;;;;;;;1.27;1.17;;;23.80;61.80;;;;;;6126502;23;20017;-90
2022/08/06 12:05:13;;;;;;;1.25;1.00;;;24.30;60.70;;;;;;6148008;23;20025;-89
2022/08/06 12:07:49;;;;;;;1.52;1.20;;;24.70;61.50;;;;;;6151497;23;20084;-89
2022/08/06 12:10:18;;;;;;;1.00;0.90;;;25.00;60.60;;;;;;6131070;23;20021;-90
2022/08/06 12:12:55;;;;;;;1.75;0.93;;;25.40;60.20;;;;;;6179226;23;20100;-89
2022/08/06 12:15:26;;;;;;;1.05;0.98;;;25.90;59.10;;;;;;6125907;23;20028;-89
2022/08/06 12:18:13;;;;;;;1.42;1.15;;;26.20;58.50;;;;;;6151543;23;20120;-90
2022/08/06 12:20:57;;;;;;;1.58;1.13;;;26.40;58.70;;;;;;6110335;23;20104;-87
2022/08/06 12:23:25;;;;;;;2.22;1.67;;;26.50;57.90;;;;;;6124362;23;20021;-88
2022/08/06 12:26:13;;;;;;;2.28;1.98;;;26.20;57.30;;;;;;6131621;23;20499;-90
2022/08/06 12:28:41;;;;;;;1.83;1.63;;;26.00;57.70;;;;;;6124338;23;20310;-89
2022/08/06 12:31:11;;;;;;;1.30;1.20;;;26.20;58.10;;;;;;6099301;23;20372;-88
2022/08/06 12:33:58;;;;;;;1.98;1.55;;;26.30;56.60;;;;;;6131966;23;20040;-88
2022/08/06 12:36:28;;;;;;;1.50;1.20;;;26.40;56.40;;;;;;6124800;23;20079;-89
2022/08/06 12:39:02;;;;;;;1.40;1.30;;;26.70;56.80;;;;;;6102388;23;20079;-88
2022/08/06 12:41:37;;;;;;;1.70;1.60;;;27.20;56.00;;;;;;6121362;23;20087;-88
2022/08/06 12:44:13;;;;;;;2.42;1.70;;;27.20;55.40;;;;;;6102559;23;20103;-89
2022/08/06 12:46:40;;;;;;;1.48;1.30;;;27.10;55.50;;;;;;6104756;23;20440;-89
2022/08/06 12:49:09;;;;;;;1.67;1.58;;;27.40;55.60;;;;;;6099294;23;20039;-90
2022/08/06 12:51:36;;;;;;;2.33;1.83;;;27.40;55.10;;;;;;6097663;23;20060;-90
2022/08/06 12:54:06;;;;;;;1.52;1.30;;;27.50;55.30;;;;;;6098479;23;20220;-87
2022/08/06 12:56:37;;;;;;;1.52;1.25;;;27.80;54.50;;;;;;6098929;23;20032;-89
2022/08/06 12:59:07;;;;;;;1.48;1.23;;;28.20;54.20;;;;;;6099073;23;20381;-88
2022/08/06 13:01:50;;;;;;;1.60;1.50;;;28.30;54.60;;;;;;6111771;23;20072;-89
2022/08/06 13:04:37;;;;;;;1.55;1.45;;;28.20;53.30;;;;;;6113245;23;20087;-90
2022/08/06 13:07:05;;;;;;;2.10;1.85;;;28.50;53.00;;;;;;6102519;23;20048;-88
2022/08/06 13:09:41;;;;;;;2.13;1.45;;;28.30;52.90;;;;;;6108425;23;20017;-88
2022/08/06 13:12:28;;;;;;;1.77;1.60;;;28.50;54.00;;;;;;6111896;23;20037;-89
2022/08/06 13:15:15;;;;;;;1.52;1.20;;;29.00;53.00;;;;;;6110883;23;20104;-88
2022/08/06 13:18:04;;;;;;;1.60;1.40;;;29.40;52.60;;;;;;6103003;23;20021;-88
2022/08/06 13:20:51;;;;;;;0.98;0.95;;;29.60;52.00;;;;;;6152868;23;20021;-86
2022/08/06 13:23:37;;;;;;;1.30;1.15;;;30.10;51.20;;;;;;6124584;23;20036;-88
2022/08/06 13:26:31;;;;;;;1.40;1.30;;;30.40;51.00;;;;;;6101445;23;20060;-88
2022/08/06 13:29:14;;;;;;;1.35;1.25;;;29.70;51.70;;;;;;6171975;23;20506;-89
2022/08/06 13:32:05;;;;;;;1.30;1.20;;;29.50;51.60;;;;;;6138357;23;20025;-90
2022/08/06 13:34:56;;;;;;;1.48;1.30;;;29.90;51.10;;;;;;6135041;23;20187;-89
2022/08/06 13:37:47;;;;;;;1.40;1.30;;;29.90;50.70;;;;;;6101451;23;20480;-90
2022/08/06 13:40:40;;;;;;;1.30;1.20;;;30.30;50.50;;;;;;6152389;23;20056;-90
2022/08/06 13:43:18;;;;;;;1.45;1.25;;;31.00;50.40;;;;;;6108840;23;20092;-89
2022/08/06 13:46:15;;;;;;;1.83;1.55;;;31.60;49.10;;;;;;6111252;23;20040;-88
2022/08/06 13:48:56;;;;;;;2.13;1.40;;;31.20;49.20;;;;;;6108970;23;20511;-89
2022/08/06 13:51:24;;;;;;;1.23;1.10;;;30.90;49.00;;;;;;6101476;23;20021;-88
2022/08/06 13:54:02;;;;;;;1.90;1.70;;;31.00;48.60;;;;;;6125257;23;20128;-88
2022/08/06 13:56:40;;;;;;;1.77;1.20;;;30.50;49.30;;;;;;6130279;23;20051;-88
2022/08/06 13:59:07;;;;;;;1.15;1.00;;;30.80;50.10;;;;;;6123910;23;20025;-90
2022/08/06 14:01:36;;;;;;;1.20;1.00;;;31.00;49.60;;;;;;6100650;23;20238;-87
2022/08/06 14:04:17;;;;;;;1.17;0.90;;;31.40;48.90;;;;;;6126593;23;20023;-89
2022/08/06 14:06:46;;;;;;;0.80;0.80;;;31.50;48.70;;;;;;6100916;23;20048;-89